createdAt,value
2023-03-23T00:02:30.042Z,20.70
2023-03-23T00:04:57.338Z,21.48
2023-03-23T00:07:28.843Z,20.58
2023-03-23T00:09:56.830Z,24.25
2023-03-23T00:12:34.800Z,20.85
2023-03-23T00:15:06.922Z,20.63
2023-03-23T00:17:37.117Z,20.80
2023-03-23T00:20:06.522Z,20.50
2023-03-23T00:22:38.719Z,20.40
2023-03-23T00:25:07.254Z,20.05
2023-03-23T00:27:34.092Z,21.02
2023-03-23T00:30:01.428Z,20.48
2023-03-23T00:32:31.140Z,20.80
2023-03-23T00:35:01.923Z,21.70
2023-03-23T00:37:29.052Z,20.50
2023-03-23T00:39:58.703Z,22.23
2023-03-23T00:42:26.364Z,21.15
2023-03-23T00:45:01.302Z,24.50
2023-03-23T00:47:28.728Z,21.65
2023-03-23T00:52:24.923Z,20.20
2023-03-23T00:54:52.009Z,20.50
2023-03-23T00:57:19.421Z,23.73
2023-03-23T01:02:13.438Z,21.85
2023-03-23T01:04:40.710Z,23.73
2023-03-23T01:09:37.533Z,19.77
2023-03-23T01:12:04.627Z,20.83
2023-03-23T01:14:31.411Z,21.15
2023-03-23T01:16:58.312Z,21.02
2023-03-23T01:19:25.158Z,24.50
2023-03-23T01:21:51.914Z,24.52
2023-03-23T01:24:21.752Z,21.13
2023-03-23T01:26:48.918Z,21.20
2023-03-23T01:29:15.880Z,20.33
2023-03-23T01:31:43.963Z,20.98
2023-03-23T01:34:11.697Z,20.83
2023-03-23T01:36:38.635Z,21.38
2023-03-23T01:39:07.041Z,20.17
2023-03-23T01:41:35.673Z,21.58
2023-03-23T01:44:07.506Z,21.35
2023-03-23T01:46:37.847Z,20.50
2023-03-23T01:49:31.367Z,19.77
2023-03-23T01:52:04.002Z,19.77
2023-03-23T01:54:31.331Z,19.73
2023-03-23T01:57:01.253Z,20.85
2023-03-23T01:59:30.343Z,20.27
2023-03-23T02:01:57.523Z,22.30
2023-03-23T02:04:26.502Z,24.20
2023-03-23T02:06:54.265Z,21.70
2023-03-23T02:09:21.163Z,23.10
2023-03-23T02:11:54.714Z,21.55
2023-03-23T02:14:23.028Z,21.30
2023-03-23T02:17:04.218Z,21.08
2023-03-23T02:19:50.170Z,21.88
2023-03-23T02:22:31.167Z,21.17
2023-03-23T02:25:13.075Z,20.08
2023-03-23T02:28:04.005Z,20.30
2023-03-23T02:30:59.827Z,20.65
2023-03-23T02:33:38.296Z,20.30
2023-03-23T02:36:30.041Z,21.15
2023-03-23T02:39:19.049Z,22.60
2023-03-23T02:41:56.357Z,21.40
2023-03-23T02:44:29.153Z,21.38
2023-03-23T02:46:57.597Z,20.58
2023-03-23T02:49:28.568Z,23.65
2023-03-23T02:51:58.693Z,20.85
2023-03-23T02:54:27.295Z,24.60
2023-03-23T02:56:56.121Z,21.08
2023-03-23T02:59:23.816Z,28.30
2023-03-23T03:04:29.855Z,23.02
2023-03-23T03:07:16.575Z,24.35
2023-03-23T03:09:49.149Z,21.25
2023-03-23T03:12:32.195Z,20.50
2023-03-23T03:15:16.901Z,20.98
2023-03-23T03:18:16.125Z,22.00
2023-03-23T03:20:49.334Z,20.85
2023-03-23T03:23:17.624Z,22.25
2023-03-23T03:25:48.671Z,20.95
2023-03-23T03:28:22.532Z,22.77
2023-03-23T03:31:02.681Z,21.33
2023-03-23T03:36:02.373Z,20.65
2023-03-23T03:38:29.557Z,20.67
2023-03-23T03:40:57.391Z,20.77
2023-03-23T03:43:24.496Z,21.25
2023-03-23T03:45:54.186Z,21.00
2023-03-23T03:48:21.123Z,20.75
2023-03-23T03:50:48.332Z,20.88
2023-03-23T03:53:15.308Z,20.20
2023-03-23T03:55:46.579Z,20.58
2023-03-23T03:58:14.108Z,21.25
2023-03-23T04:03:17.707Z,22.38
2023-03-23T04:05:45.803Z,21.63
2023-03-23T04:08:25.568Z,23.83
2023-03-23T04:10:52.809Z,20.10
2023-03-23T04:13:19.958Z,22.20
2023-03-23T04:16:10.119Z,21.42
2023-03-23T04:18:36.143Z,20.33
2023-03-23T04:21:04.523Z,20.20
2023-03-23T04:23:34.817Z,21.10
2023-03-23T04:26:02.638Z,21.75
2023-03-23T04:28:31.188Z,20.67
2023-03-23T04:30:58.658Z,24.65
2023-03-23T04:33:55.749Z,20.02
2023-03-23T04:36:20.228Z,21.92
2023-03-23T04:41:13.933Z,21.38
2023-03-23T04:43:42.970Z,21.70
2023-03-23T04:46:10.917Z,20.95
2023-03-23T04:48:40.268Z,21.80
2023-03-23T04:51:07.328Z,20.42
2023-03-23T04:53:34.748Z,21.00
2023-03-23T04:58:30.411Z,20.52
2023-03-23T05:00:57.414Z,20.88
2023-03-23T05:03:24.346Z,20.45
2023-03-23T05:05:54.613Z,22.20
2023-03-23T05:08:28.225Z,20.77
2023-03-23T05:10:58.141Z,20.48
2023-03-23T05:13:26.026Z,21.70
2023-03-23T05:15:53.184Z,20.52
2023-03-23T05:18:21.572Z,25.05
2023-03-23T05:20:50.022Z,20.65
2023-03-23T05:23:16.933Z,21.17
2023-03-23T05:25:43.912Z,21.50
2023-03-23T05:28:13.286Z,21.67
2023-03-23T05:30:40.762Z,20.30
2023-03-23T05:33:07.726Z,22.50
2023-03-23T05:35:34.922Z,24.55
2023-03-23T05:38:03.318Z,23.90
2023-03-23T05:40:31.313Z,23.58
2023-03-23T05:43:00.117Z,22.25
2023-03-23T05:45:27.552Z,20.35
2023-03-23T05:50:21.207Z,25.70
2023-03-23T05:52:48.345Z,22.63
2023-03-23T05:55:16.447Z,22.92
2023-03-23T05:57:43.385Z,23.35
2023-03-23T06:00:15.515Z,22.13
2023-03-23T06:02:47.251Z,22.38
2023-03-23T06:05:15.309Z,22.10
2023-03-23T06:07:45.660Z,27.38
2023-03-23T06:10:14.768Z,24.52
2023-03-23T06:12:42.686Z,25.40
2023-03-23T06:15:14.193Z,26.48
2023-03-23T06:17:45.754Z,28.13
2023-03-23T06:20:17.310Z,23.55
2023-03-23T06:22:55.514Z,24.85
2023-03-23T06:28:28.034Z,25.75
2023-03-23T06:31:17.957Z,26.23
2023-03-23T06:34:20.496Z,25.98
2023-03-23T06:43:25.448Z,26.63
2023-03-23T06:49:13.565Z,25.77
2023-03-23T07:10:11.682Z,27.73
2023-03-23T07:16:49.534Z,26.20
2023-03-23T07:22:59.922Z,24.65
2023-03-23T07:25:58.482Z,25.38
2023-03-23T07:29:06.933Z,23.83
2023-03-23T07:35:14.182Z,27.65
2023-03-23T07:38:20.924Z,24.63
2023-03-23T07:41:27.498Z,25.38
2023-03-23T07:47:16.216Z,30.58
2023-03-23T07:55:57.895Z,26.23
2023-03-23T08:08:06.279Z,24.25
2023-03-23T08:11:13.181Z,24.33
2023-03-23T08:19:48.908Z,25.17
2023-03-23T08:25:45.660Z,27.08
2023-03-23T08:31:15.430Z,27.42
2023-03-23T08:37:20.198Z,31.55
2023-03-23T08:43:40.700Z,25.95
2023-03-23T08:46:24.825Z,25.92
2023-03-23T08:49:13.357Z,28.35
2023-03-23T08:52:09.258Z,26.10
2023-03-23T08:55:04.093Z,30.50
2023-03-23T09:00:45.989Z,27.52
2023-03-23T09:03:20.653Z,28.10
2023-03-23T09:06:13.426Z,28.25
2023-03-23T09:08:58.537Z,29.08
2023-03-23T09:11:47.261Z,27.75
2023-03-23T09:14:15.857Z,28.65
2023-03-23T09:17:04.462Z,30.80
2023-03-23T09:26:02.593Z,29.92
2023-03-23T09:28:34.794Z,27.63
2023-03-23T09:31:15.626Z,33.00
2023-03-23T09:33:48.010Z,28.50
2023-03-23T09:36:34.023Z,34.63
2023-03-23T09:39:08.963Z,31.00
2023-03-23T09:42:17.157Z,33.50
2023-03-23T09:44:52.591Z,31.77
2023-03-23T09:48:06.074Z,31.98
2023-03-23T09:50:41.241Z,29.30
2023-03-23T09:53:36.252Z,28.98
2023-03-23T09:56:11.433Z,30.65
2023-03-23T09:58:49.562Z,26.02
2023-03-23T10:01:23.235Z,27.55
2023-03-23T10:06:20.459Z,28.55
2023-03-23T10:08:59.377Z,29.17
2023-03-23T10:11:35.610Z,26.25
2023-03-23T10:14:08.629Z,29.00
2023-03-23T10:17:03.005Z,28.95
2023-03-23T10:19:46.839Z,28.27
2023-03-23T10:22:18.504Z,27.88
2023-03-23T10:25:04.715Z,29.95
2023-03-23T10:27:44.854Z,31.15
2023-03-23T10:30:12.172Z,27.77
2023-03-23T10:35:17.693Z,31.23
2023-03-23T10:37:50.537Z,26.08
2023-03-23T10:40:26.904Z,27.20
2023-03-23T10:42:54.382Z,29.48
2023-03-23T10:45:23.841Z,26.00
2023-03-23T10:48:14.826Z,27.10
2023-03-23T10:50:45.108Z,29.55
2023-03-23T10:53:40.989Z,27.20
2023-03-23T10:56:28.512Z,26.98
2023-03-23T10:58:57.313Z,27.83
2023-03-23T11:01:36.337Z,27.33
2023-03-23T11:04:03.560Z,29.10
2023-03-23T11:06:34.970Z,29.55
2023-03-23T11:09:11.653Z,26.90
2023-03-23T11:11:44.749Z,27.50
2023-03-23T11:14:21.024Z,28.63
2023-03-23T11:16:56.350Z,28.58
2023-03-23T11:19:42.414Z,27.52
2023-03-23T11:22:17.409Z,28.35
2023-03-23T11:24:49.454Z,29.60
2023-03-23T11:27:16.955Z,32.58
2023-03-23T11:29:58.452Z,27.80
2023-03-23T11:32:29.107Z,27.20
2023-03-23T11:35:18.974Z,29.42
2023-03-23T11:37:58.808Z,28.13
2023-03-23T11:40:29.187Z,27.83
2023-03-23T11:43:09.988Z,31.23
2023-03-23T11:45:41.492Z,26.88
2023-03-23T11:48:27.970Z,27.52
2023-03-23T11:51:12.516Z,28.38
2023-03-23T11:53:51.113Z,27.58
2023-03-23T11:56:45.262Z,26.90
2023-03-23T11:59:34.655Z,27.33
2023-03-23T12:02:21.796Z,26.30
2023-03-23T12:05:21.177Z,26.42
2023-03-23T12:08:31.976Z,27.70
2023-03-23T12:11:26.543Z,26.85
2023-03-23T12:14:30.104Z,29.13
2023-03-23T12:17:18.965Z,27.38
2023-03-23T12:20:21.276Z,28.27
2023-03-23T12:23:05.700Z,27.58
2023-03-23T12:26:17.401Z,30.55
2023-03-23T12:29:18.256Z,28.17
2023-03-23T12:31:58.457Z,28.10
2023-03-23T12:34:43.375Z,28.95
2023-03-23T12:37:34.850Z,27.98
2023-03-23T12:40:39.582Z,28.60
2023-03-23T12:48:27.554Z,26.38
2023-03-23T12:51:26.081Z,27.20
2023-03-23T12:53:57.032Z,37.03
2023-03-23T12:56:34.725Z,25.88
2023-03-23T12:59:11.502Z,32.60
2023-03-23T13:01:44.817Z,26.30
2023-03-23T13:04:25.110Z,28.40
2023-03-23T13:06:52.795Z,33.28
2023-03-23T13:09:34.157Z,25.75
2023-03-23T13:12:06.757Z,26.33
2023-03-23T13:15:20.418Z,28.48
2023-03-23T13:18:05.734Z,29.02
2023-03-23T13:20:56.873Z,31.67
2023-03-23T13:23:29.193Z,26.30
2023-03-23T13:26:04.721Z,27.00
2023-03-23T13:28:50.610Z,27.45
2023-03-23T13:31:26.534Z,24.98
2023-03-23T13:33:58.757Z,25.58
2023-03-23T13:36:34.056Z,29.30
2023-03-23T13:39:04.042Z,28.38
2023-03-23T13:41:32.105Z,32.35
2023-03-23T13:44:26.485Z,50.47
2023-03-23T13:47:09.992Z,32.95
2023-03-23T13:49:50.602Z,27.27
2023-03-23T13:52:38.415Z,35.22
2023-03-23T13:55:29.962Z,32.55
2023-03-23T13:58:02.783Z,28.42
2023-03-23T14:00:35.633Z,28.10
2023-03-23T14:03:11.884Z,38.92
2023-03-23T14:05:46.520Z,26.77
2023-03-23T14:08:38.547Z,41.72
2023-03-23T14:11:13.396Z,7.32
2023-03-23T14:14:01.239Z,6.95
2023-03-23T14:16:36.874Z,4.93
2023-03-23T14:19:14.253Z,4.43
2023-03-23T14:21:43.850Z,6.10
2023-03-23T14:24:14.052Z,4.53
2023-03-23T14:26:41.116Z,3.88
2023-03-23T14:29:08.621Z,17.42
2023-03-23T14:31:37.430Z,14.80
2023-03-23T14:34:12.446Z,7.88
2023-03-23T14:36:41.227Z,2.92
2023-03-23T14:39:08.243Z,7.45
2023-03-23T14:41:37.417Z,7.35
2023-03-23T14:44:07.912Z,8.63
2023-03-23T14:46:35.767Z,12.68
2023-03-23T14:49:07.285Z,8.13
2023-03-23T14:51:34.105Z,12.10
2023-03-23T14:54:04.263Z,4.30
2023-03-23T14:56:38.294Z,25.10
2023-03-23T14:59:10.780Z,23.90
2023-03-23T15:01:39.559Z,24.50
2023-03-23T15:04:16.362Z,25.90
2023-03-23T15:06:48.070Z,26.40
2023-03-23T15:09:21.456Z,24.42
2023-03-23T15:11:59.106Z,42.92
2023-03-23T15:14:34.244Z,39.10
2023-03-23T15:17:02.067Z,25.23
2023-03-23T15:19:34.630Z,25.70
2023-03-23T15:22:25.167Z,27.58
2023-03-23T15:24:54.415Z,22.83
2023-03-23T15:27:40.700Z,25.33
2023-03-23T15:30:25.940Z,24.55
2023-03-23T15:32:55.431Z,6.75
2023-03-23T15:35:26.040Z,7.90
2023-03-23T15:38:03.512Z,4.70
2023-03-23T15:40:35.597Z,3.50
2023-03-23T15:43:35.849Z,4.53
2023-03-23T15:46:23.282Z,16.02
2023-03-23T15:49:07.328Z,6.32
2023-03-23T15:51:34.329Z,15.38
2023-03-23T15:54:05.734Z,10.07
2023-03-23T15:56:36.017Z,17.95
2023-03-23T15:59:02.974Z,11.10
2023-03-23T16:01:31.663Z,12.32
2023-03-23T16:04:05.411Z,30.65
2023-03-23T16:06:34.590Z,34.85
2023-03-23T16:09:02.216Z,3.45
2023-03-23T16:11:32.137Z,5.93
2023-03-23T16:14:00.056Z,21.45
2023-03-23T16:16:35.672Z,22.48
2023-03-23T16:19:03.366Z,8.20
2023-03-23T16:21:30.120Z,12.23
2023-03-23T16:23:57.925Z,2.70
2023-03-23T16:26:24.956Z,4.82
2023-03-23T16:28:55.317Z,22.25
2023-03-23T16:31:26.849Z,14.65
2023-03-23T16:33:53.788Z,14.80
2023-03-23T16:36:20.633Z,3.08
2023-03-23T16:38:49.028Z,8.63
2023-03-23T16:41:17.674Z,41.95
2023-03-23T16:43:44.550Z,30.80
2023-03-23T16:46:13.590Z,7.25
2023-03-23T16:48:40.883Z,22.60
2023-03-23T16:53:36.241Z,23.45
2023-03-23T16:56:03.996Z,21.38
2023-03-23T16:58:30.891Z,22.40
2023-03-23T17:00:57.798Z,27.30
2023-03-23T17:03:24.780Z,23.48
2023-03-23T17:05:52.615Z,22.85
2023-03-23T17:08:20.459Z,22.00
2023-03-23T17:10:47.932Z,22.30
2023-03-23T17:13:14.851Z,23.65
2023-03-23T17:15:45.286Z,24.20
2023-03-23T17:18:13.938Z,22.58
2023-03-23T17:20:41.037Z,25.15
2023-03-23T17:23:07.984Z,21.52
2023-03-23T17:25:35.130Z,23.42
2023-03-23T17:28:05.960Z,26.05
2023-03-23T17:30:34.006Z,22.90
2023-03-23T17:33:00.895Z,22.85
2023-03-23T17:35:27.962Z,24.27
2023-03-23T17:37:54.731Z,31.02
2023-03-23T17:40:21.728Z,22.98
2023-03-23T17:42:48.526Z,23.60
2023-03-23T17:45:15.845Z,22.20
2023-03-23T17:47:42.857Z,24.23
2023-03-23T17:52:40.598Z,22.90
2023-03-23T17:55:08.586Z,25.23
2023-03-23T17:57:36.381Z,23.27
2023-03-23T18:00:07.601Z,22.88
2023-03-23T18:02:35.977Z,22.67
2023-03-23T18:05:02.834Z,22.90
2023-03-23T18:07:29.639Z,23.00
2023-03-23T18:10:00.956Z,22.52
2023-03-23T18:12:28.116Z,32.63
2023-03-23T18:14:59.104Z,14.57
2023-03-23T18:17:26.723Z,4.03
2023-03-23T18:19:53.933Z,5.82
2023-03-23T18:22:20.937Z,6.10
2023-03-23T18:24:47.797Z,5.07
2023-03-23T18:27:15.443Z,5.45
2023-03-23T18:29:42.650Z,8.38
2023-03-23T18:32:09.707Z,11.00
2023-03-23T18:34:38.151Z,7.80
2023-03-23T18:37:05.132Z,12.82
2023-03-23T18:39:34.316Z,14.15
2023-03-23T18:42:01.993Z,13.57
2023-03-23T18:44:32.030Z,12.20
2023-03-23T18:46:59.113Z,14.98
2023-03-23T18:49:26.465Z,18.92
2023-03-23T18:54:20.134Z,18.35
2023-03-23T18:56:47.095Z,29.00
2023-03-23T18:59:14.050Z,14.05
2023-03-23T19:01:41.279Z,13.05
2023-03-23T19:04:08.240Z,14.60
2023-03-23T19:06:35.293Z,19.08
2023-03-23T19:09:03.025Z,16.75
2023-03-23T19:11:30.345Z,16.45
2023-03-23T19:16:27.231Z,14.02
2023-03-23T19:18:54.123Z,12.55
2023-03-23T19:21:25.242Z,16.85
2023-03-23T19:23:54.685Z,19.83
2023-03-23T19:26:37.976Z,6.57
2023-03-23T19:31:37.889Z,7.38
2023-03-23T19:36:32.859Z,4.65
2023-03-23T19:39:02.912Z,5.68
2023-03-23T19:41:30.099Z,7.28
2023-03-23T19:43:57.348Z,13.02
2023-03-23T19:46:26.025Z,10.00
2023-03-23T19:48:54.565Z,9.55
2023-03-23T19:51:22.643Z,12.52
2023-03-23T19:53:50.299Z,5.82
2023-03-23T19:56:24.635Z,4.75
2023-03-23T19:58:52.181Z,6.45
2023-03-23T20:01:19.661Z,7.93
2023-03-23T20:03:46.821Z,6.30
2023-03-23T20:06:15.559Z,8.35
2023-03-23T20:08:47.897Z,6.32
2023-03-23T20:11:19.345Z,8.63
2023-03-23T20:13:48.664Z,11.27
2023-03-23T20:16:17.664Z,6.03
2023-03-23T20:18:46.566Z,9.18
2023-03-23T20:21:19.696Z,8.30
2023-03-23T20:23:48.209Z,5.78
2023-03-23T20:26:20.936Z,4.22
2023-03-23T20:28:48.204Z,7.25
2023-03-23T20:31:23.090Z,6.90
2023-03-23T20:34:00.051Z,8.90
2023-03-23T20:36:35.297Z,4.55
2023-03-23T20:39:05.819Z,4.50
2023-03-23T20:41:36.480Z,6.55
2023-03-23T20:44:04.779Z,8.43
2023-03-23T20:46:32.238Z,4.68
2023-03-23T20:48:59.537Z,3.72
2023-03-23T20:53:53.559Z,6.90
2023-03-23T20:56:21.352Z,7.32
2023-03-23T20:58:48.243Z,4.10
2023-03-23T21:01:15.546Z,6.13
2023-03-23T21:06:10.981Z,5.72
2023-03-23T21:08:39.554Z,7.28
2023-03-23T21:11:09.585Z,5.70
2023-03-23T21:13:37.265Z,7.47
2023-03-23T21:16:05.358Z,9.50
2023-03-23T21:18:32.765Z,9.93
2023-03-23T21:21:00.575Z,8.25
2023-03-23T21:23:29.905Z,4.95
2023-03-23T21:26:03.018Z,3.35
2023-03-23T21:28:30.421Z,6.05
2023-03-23T21:33:28.676Z,14.50
2023-03-23T21:35:55.891Z,4.88
2023-03-23T21:38:26.413Z,7.82
2023-03-23T21:40:54.620Z,9.63
2023-03-23T21:43:27.787Z,14.98
2023-03-23T21:45:56.898Z,12.95
2023-03-23T21:48:26.080Z,27.83
2023-03-23T21:50:53.614Z,27.50
2023-03-23T21:53:21.678Z,13.57
2023-03-23T21:55:54.813Z,23.42
2023-03-23T21:58:26.213Z,4.82
2023-03-23T22:00:55.181Z,6.28
2023-03-23T22:03:24.547Z,7.35
2023-03-23T22:05:55.069Z,10.70
2023-03-23T22:08:23.390Z,4.45
2023-03-23T22:11:01.345Z,6.25
2023-03-23T22:13:30.653Z,6.45
2023-03-23T22:15:59.481Z,6.47
2023-03-23T22:18:26.722Z,26.30
2023-03-23T22:20:54.130Z,26.23
2023-03-23T22:25:48.131Z,25.50
2023-03-23T22:28:15.092Z,27.67
2023-03-23T22:30:41.904Z,27.23
2023-03-23T22:33:08.739Z,26.08
2023-03-23T22:35:35.655Z,26.67
2023-03-23T22:38:05.450Z,25.48
2023-03-23T22:40:32.286Z,27.70
2023-03-23T22:42:59.292Z,28.40
2023-03-23T22:45:27.522Z,31.17
2023-03-23T22:47:54.754Z,27.20
2023-03-23T22:50:24.291Z,26.20
2023-03-23T22:52:51.109Z,26.60
2023-03-23T22:55:18.385Z,28.58
2023-03-23T22:57:46.053Z,26.85
2023-03-23T23:00:18.121Z,25.25
2023-03-23T23:02:45.924Z,26.92
2023-03-23T23:05:13.996Z,26.88
2023-03-23T23:07:41.306Z,28.58
2023-03-23T23:10:08.440Z,28.15
2023-03-23T23:12:35.459Z,27.83
2023-03-23T23:15:04.889Z,26.73
2023-03-23T23:17:32.165Z,26.13
2023-03-23T23:20:00.100Z,29.20
2023-03-23T23:22:27.765Z,26.80
2023-03-23T23:24:54.770Z,26.70
2023-03-23T23:27:22.001Z,27.17
2023-03-23T23:29:51.352Z,26.17
2023-03-23T23:32:18.283Z,27.52
2023-03-23T23:34:45.221Z,26.30
2023-03-23T23:37:12.115Z,26.15
2023-03-23T23:39:41.466Z,26.98
2023-03-23T23:42:08.350Z,26.85
2023-03-23T23:44:35.441Z,26.70
2023-03-23T23:47:02.723Z,26.20
2023-03-23T23:49:29.898Z,26.67
2023-03-23T23:51:57.103Z,25.55
2023-03-23T23:54:30.169Z,26.90
2023-03-23T23:56:58.420Z,25.85
2023-03-23T23:59:26.164Z,27.58
